Time;durP1;ratioP1;P1;durP2;ratioP2;P2;SDS_P1;SDS_P2;PMS_P1;PMS_P2;Temp;Humidity;BMP_temperature;BMP_pressure;BME280_temperature;BME280_humidity;BME280_pressure;Samples;Min_cycle;Max_cycle;Signal;HPM_P1;HPM_P2
2021/10/02 00:36:48;;;;;;;4.47;3.30;;;13.30;99.90;;;;;;4989718;28;20283;-72
2021/10/02 00:44:49;;;;;;;3.80;2.97;;;13.20;99.90;;;;;;4996536;28;20260;-72
2021/10/02 00:47:20;;;;;;;4.70;3.50;;;13.30;99.90;;;;;;4990655;28;21204;-72
2021/10/02 00:49:48;;;;;;;7.43;3.87;;;13.30;99.90;;;;;;4995731;28;20696;-73
2021/10/02 00:52:19;;;;;;;5.30;3.93;;;13.20;99.90;;;;;;4993025;28;20229;-72
2021/10/02 00:54:48;;;;;;;4.83;4.10;;;13.20;99.90;;;;;;4992338;28;20316;-72
2021/10/02 00:57:17;;;;;;;6.50;4.17;;;13.20;99.90;;;;;;4994814;28;20252;-72
2021/10/02 00:59:47;;;;;;;5.90;3.87;;;13.30;99.90;;;;;;4994939;28;20261;-72
2021/10/02 01:02:23;;;;;;;5.47;3.90;;;13.30;99.90;;;;;;4990019;28;20732;-72
2021/10/02 01:05:18;;;;;;;5.63;4.30;;;13.30;99.90;;;;;;4997930;28;20229;-72
2021/10/02 01:07:54;;;;;;;8.33;4.70;;;13.30;99.90;;;;;;4989089;28;20333;-72
2021/10/02 01:10:33;;;;;;;6.00;4.47;;;13.30;99.90;;;;;;4991190;28;20233;-72
2021/10/02 01:13:07;;;;;;;4.97;4.47;;;13.30;99.90;;;;;;4984597;28;20633;-71
2021/10/02 01:15:44;;;;;;;5.10;4.60;;;13.30;99.90;;;;;;4989368;28;20577;-72
2021/10/02 01:18:18;;;;;;;7.23;5.27;;;13.20;99.90;;;;;;4994746;28;20746;-72
2021/10/02 01:21:02;;;;;;;6.93;5.00;;;13.30;99.90;;;;;;4992287;28;20241;-72
2021/10/02 01:23:57;;;;;;;7.80;5.23;;;13.30;99.90;;;;;;4988962;28;20729;-72
2021/10/02 01:26:43;;;;;;;6.23;4.80;;;13.20;99.90;;;;;;4986740;28;20234;-71
2021/10/02 01:29:15;;;;;;;8.77;6.07;;;13.20;99.90;;;;;;4997688;28;20777;-72
2021/10/02 01:31:56;;;;;;;7.13;5.70;;;13.30;99.90;;;;;;4991028;28;20244;-72
2021/10/02 01:34:30;;;;;;;7.23;5.73;;;13.30;99.90;;;;;;4994171;28;20260;-72
2021/10/02 01:37:11;;;;;;;6.90;5.43;;;13.30;99.90;;;;;;4996985;28;20332;-72
2021/10/02 01:48:03;;;;;;;7.47;5.77;;;13.20;99.90;;;;;;4990354;28;22121;-72
2021/10/02 01:50:36;;;;;;;8.83;5.93;;;13.20;99.90;;;;;;4994208;28;20596;-72
2021/10/02 01:53:07;;;;;;;8.17;5.97;;;13.20;99.90;;;;;;4995913;28;20317;-72
2021/10/02 01:55:37;;;;;;;7.17;6.20;;;13.20;99.90;;;;;;4991893;28;20275;-72
2021/10/02 01:58:10;;;;;;;8.33;6.00;;;13.20;99.90;;;;;;4991839;28;20245;-72
2021/10/02 02:00:43;;;;;;;7.30;5.90;;;13.20;99.90;;;;;;4996046;28;20663;-72
2021/10/02 02:03:15;;;;;;;8.10;6.10;;;13.20;99.90;;;;;;4993749;28;20245;-72
2021/10/02 02:05:44;;;;;;;7.87;6.43;;;13.30;99.90;;;;;;4995328;28;20234;-72
2021/10/02 02:08:16;;;;;;;7.13;6.27;;;13.30;99.90;;;;;;4988656;28;20436;-72
2021/10/02 02:10:45;;;;;;;6.93;6.00;;;13.20;99.90;;;;;;4992078;28;20312;-72
2021/10/02 02:13:15;;;;;;;7.67;6.60;;;13.20;99.90;;;;;;4985579;28;20272;-72
2021/10/02 02:15:47;;;;;;;8.63;6.20;;;13.30;99.90;;;;;;4993863;28;20803;-71
2021/10/02 02:18:17;;;;;;;10.33;6.67;;;13.20;99.90;;;;;;4989043;28;20279;-72
2021/10/02 02:20:54;;;;;;;7.73;6.93;;;13.20;99.90;;;;;;4989512;28;20241;-71
2021/10/02 02:23:25;;;;;;;11.00;6.80;;;13.20;99.90;;;;;;4991593;28;20244;-72
2021/10/02 02:25:54;;;;;;;8.07;7.07;;;13.20;99.90;;;;;;4992837;28;20238;-72
2021/10/02 02:28:23;;;;;;;9.77;6.63;;;13.20;99.90;;;;;;4992783;28;20326;-72
2021/10/02 02:30:53;;;;;;;7.70;7.00;;;13.20;99.90;;;;;;4993207;28;20695;-71
2021/10/02 02:33:22;;;;;;;7.93;6.67;;;13.20;99.90;;;;;;4989051;28;20267;-72
2021/10/02 02:35:52;;;;;;;8.53;7.43;;;13.20;99.90;;;;;;4987629;28;20338;-71
2021/10/02 02:38:20;;;;;;;9.27;6.73;;;13.30;99.90;;;;;;4994451;28;20262;-72
2021/10/02 02:40:50;;;;;;;7.97;6.57;;;13.20;99.90;;;;;;4986749;28;20320;-72
2021/10/02 02:43:19;;;;;;;8.37;6.40;;;13.20;99.90;;;;;;4992004;28;20233;-71
2021/10/02 02:45:53;;;;;;;8.37;7.10;;;13.20;99.90;;;;;;4993664;28;20268;-72
2021/10/02 02:48:28;;;;;;;9.37;8.07;;;13.20;99.90;;;;;;4994155;28;20285;-72
2021/10/02 02:51:00;;;;;;;9.77;7.37;;;13.20;99.90;;;;;;4989301;28;20644;-72
2021/10/02 02:53:41;;;;;;;8.93;7.63;;;13.20;99.90;;;;;;4987938;28;20591;-72
2021/10/02 02:56:17;;;;;;;8.93;7.77;;;13.20;99.90;;;;;;4987807;28;20245;-72
2021/10/02 02:58:50;;;;;;;9.43;7.07;;;13.20;99.90;;;;;;4992422;28;20699;-72
2021/10/02 03:01:20;;;;;;;8.50;7.60;;;13.20;99.90;;;;;;4990836;28;20249;-72
2021/10/02 03:03:51;;;;;;;11.67;7.70;;;13.20;99.90;;;;;;4989732;28;20257;-72
2021/10/02 03:06:21;;;;;;;9.93;7.20;;;13.20;99.90;;;;;;4994288;28;20260;-72
2021/10/02 03:08:53;;;;;;;11.10;7.50;;;13.20;99.90;;;;;;4989090;28;20249;-72
2021/10/02 03:11:24;;;;;;;9.50;8.20;;;13.20;99.90;;;;;;4995343;28;20304;-72
2021/10/02 03:13:56;;;;;;;8.83;7.73;;;13.20;99.90;;;;;;4989254;28;20241;-72
2021/10/02 03:16:26;;;;;;;8.87;7.63;;;13.20;99.90;;;;;;4989203;28;20251;-71
2021/10/02 03:19:02;;;;;;;9.23;7.97;;;13.20;99.90;;;;;;4995195;28;20268;-72
2021/10/02 03:21:31;;;;;;;10.60;8.00;;;13.20;99.90;;;;;;4976838;28;20272;-72
2021/10/02 03:24:02;;;;;;;12.53;9.00;;;13.20;99.90;;;;;;4996736;28;20265;-72
2021/10/02 03:26:32;;;;;;;10.17;8.40;;;13.20;99.90;;;;;;4986705;28;20268;-72
2021/10/02 03:29:01;;;;;;;11.47;8.47;;;13.20;99.90;;;;;;4998396;28;20370;-72
2021/10/02 03:31:30;;;;;;;9.57;8.60;;;13.20;99.90;;;;;;4983633;28;20450;-72
2021/10/02 03:34:00;;;;;;;11.87;9.50;;;13.30;99.90;;;;;;4996040;28;20778;-72
2021/10/02 03:36:29;;;;;;;10.17;8.83;;;13.20;99.90;;;;;;4984354;28;20237;-72
2021/10/02 03:38:57;;;;;;;10.20;8.23;;;13.30;99.90;;;;;;4991656;28;20243;-72
2021/10/02 03:41:26;;;;;;;10.63;8.50;;;13.30;99.90;;;;;;4997543;28;20245;-72
2021/10/02 03:43:54;;;;;;;11.57;9.17;;;13.30;99.90;;;;;;4998141;28;20239;-72
2021/10/02 03:46:22;;;;;;;10.20;9.20;;;13.30;99.90;;;;;;4991356;28;20409;-72
2021/10/02 03:48:51;;;;;;;10.60;9.50;;;13.20;99.90;;;;;;4995233;28;20733;-72
2021/10/02 03:51:21;;;;;;;9.33;8.40;;;13.20;99.90;;;;;;4997927;28;20333;-72
2021/10/02 03:53:49;;;;;;;12.47;9.63;;;13.20;99.90;;;;;;4994772;28;20244;-72
2021/10/02 03:56:17;;;;;;;13.37;9.53;;;13.30;99.90;;;;;;4995587;28;20282;-71
2021/10/02 03:58:45;;;;;;;10.23;8.83;;;13.20;99.90;;;;;;4991176;28;20245;-71
2021/10/02 04:01:13;;;;;;;12.50;8.60;;;13.30;99.90;;;;;;4992658;28;20252;-71
2021/10/02 04:03:42;;;;;;;12.77;9.60;;;13.20;99.90;;;;;;5000632;28;20774;-71
2021/10/02 04:06:12;;;;;;;11.90;10.03;;;13.20;99.90;;;;;;4997383;28;20255;-72
2021/10/02 04:08:41;;;;;;;10.83;9.43;;;13.10;99.90;;;;;;4988163;28;20755;-72
2021/10/02 04:11:10;;;;;;;10.87;9.63;;;13.10;99.90;;;;;;4993153;28;20327;-72
2021/10/02 04:13:38;;;;;;;12.00;9.53;;;13.20;99.90;;;;;;4983654;28;20602;-72
2021/10/02 04:16:07;;;;;;;10.53;8.63;;;13.20;99.90;;;;;;4985959;28;20971;-72
2021/10/02 04:18:35;;;;;;;12.50;10.20;;;13.20;99.90;;;;;;4985396;28;20299;-72
2021/10/02 04:21:04;;;;;;;12.93;9.07;;;13.20;99.90;;;;;;4986980;28;20245;-71
2021/10/02 04:23:32;;;;;;;10.53;8.80;;;13.30;99.90;;;;;;4973428;28;20236;-72
2021/10/02 04:26:01;;;;;;;9.87;8.83;;;13.30;99.90;;;;;;4992557;28;20661;-72
2021/10/02 04:28:29;;;;;;;11.13;9.00;;;13.20;99.90;;;;;;4989357;28;20794;-72
2021/10/02 04:31:02;;;;;;;10.33;9.10;;;13.30;99.90;;;;;;4984586;28;20247;-72
2021/10/02 04:33:31;;;;;;;10.77;8.87;;;13.20;99.90;;;;;;4987584;28;20388;-72
2021/10/02 04:35:59;;;;;;;12.07;9.17;;;13.20;99.90;;;;;;4972517;28;20299;-72
2021/10/02 04:38:27;;;;;;;11.20;8.83;;;13.30;99.90;;;;;;4982959;28;20312;-72
2021/10/02 04:40:55;;;;;;;11.30;9.00;;;13.30;99.90;;;;;;4987586;28;20236;-72
2021/10/02 04:43:26;;;;;;;11.97;8.93;;;13.30;99.90;;;;;;4982175;28;20269;-72
2021/10/02 04:45:54;;;;;;;13.53;9.83;;;13.30;99.90;;;;;;4982325;28;20259;-72
2021/10/02 04:48:24;;;;;;;10.87;9.00;;;13.30;99.90;;;;;;4983092;28;20707;-72
2021/10/02 04:50:52;;;;;;;13.67;10.00;;;13.30;99.90;;;;;;4988693;28;20252;-72
2021/10/02 04:53:21;;;;;;;10.27;9.00;;;13.30;99.90;;;;;;4981891;28;20240;-72
2021/10/02 04:55:49;;;;;;;12.10;9.57;;;13.30;99.90;;;;;;4985874;28;20233;-72
2021/10/02 04:58:17;;;;;;;11.03;9.40;;;13.30;99.90;;;;;;4981669;28;20233;-72
2021/10/02 05:00:46;;;;;;;10.67;9.20;;;13.30;99.90;;;;;;4987888;28;20596;-72
2021/10/02 05:03:15;;;;;;;13.07;10.10;;;13.20;99.90;;;;;;4978633;28;20597;-72
2021/10/02 05:05:43;;;;;;;11.20;9.93;;;13.20;99.90;;;;;;4984354;28;20235;-72
2021/10/02 05:08:11;;;;;;;12.60;9.80;;;13.20;99.90;;;;;;4981771;28;20321;-72
2021/10/02 05:10:39;;;;;;;12.97;10.07;;;13.20;99.90;;;;;;4984874;28;20352;-72
2021/10/02 05:13:08;;;;;;;12.67;9.97;;;13.20;99.90;;;;;;4979654;28;20942;-72
2021/10/02 05:15:36;;;;;;;17.87;10.63;;;13.20;99.90;;;;;;4984169;28;20319;-72
2021/10/02 05:18:06;;;;;;;12.33;11.00;;;13.20;99.90;;;;;;4978902;28;20249;-72
2021/10/02 05:20:34;;;;;;;13.70;11.33;;;13.20;99.90;;;;;;4988951;28;20315;-72
2021/10/02 05:23:03;;;;;;;13.90;10.77;;;13.20;99.90;;;;;;4980560;28;20235;-72
2021/10/02 05:25:31;;;;;;;13.47;10.63;;;13.20;99.90;;;;;;4984333;28;20233;-72
2021/10/02 05:28:02;;;;;;;13.10;11.20;;;13.20;99.90;;;;;;4979918;28;20260;-72
2021/10/02 05:30:30;;;;;;;16.03;10.30;;;13.10;99.90;;;;;;4984434;28;20237;-72
2021/10/02 05:32:59;;;;;;;12.80;10.90;;;13.10;99.90;;;;;;4985546;28;20240;-72
2021/10/02 05:35:28;;;;;;;14.67;11.07;;;13.10;99.90;;;;;;4983513;28;20362;-72
2021/10/02 05:37:56;;;;;;;14.43;11.97;;;13.20;99.90;;;;;;4980966;28;20253;-72
2021/10/02 05:40:24;;;;;;;15.53;11.60;;;13.20;99.90;;;;;;4977719;28;20255;-72
2021/10/02 05:42:52;;;;;;;15.50;11.60;;;13.20;99.90;;;;;;4978599;28;20237;-72
2021/10/02 05:45:20;;;;;;;16.93;11.90;;;13.20;99.90;;;;;;4981318;28;20240;-72
2021/10/02 05:47:49;;;;;;;19.70;12.30;;;13.20;99.90;;;;;;4978893;28;20316;-72
2021/10/02 05:50:17;;;;;;;19.63;13.33;;;13.20;99.90;;;;;;4978842;28;20286;-72
2021/10/02 05:52:46;;;;;;;18.00;12.77;;;13.20;99.90;;;;;;4977755;28;20242;-72
2021/10/02 05:55:18;;;;;;;19.87;13.50;;;13.20;99.90;;;;;;4968241;28;20229;-72
2021/10/02 05:57:46;;;;;;;19.60;13.50;;;13.30;99.90;;;;;;4986460;28;20232;-72
2021/10/02 06:00:14;;;;;;;17.03;12.93;;;13.20;99.90;;;;;;4981324;28;20234;-71
2021/10/02 06:02:43;;;;;;;20.30;14.60;;;13.30;99.90;;;;;;4981903;28;20239;-72
2021/10/02 06:05:11;;;;;;;18.73;13.20;;;13.30;99.90;;;;;;4983235;28;20253;-72
2021/10/02 06:07:43;;;;;;;21.37;14.27;;;13.30;99.90;;;;;;4978073;28;20246;-72
2021/10/02 06:10:12;;;;;;;19.10;13.33;;;13.40;99.90;;;;;;4982752;28;20323;-72
2021/10/02 06:12:40;;;;;;;18.90;13.20;;;13.30;99.90;;;;;;4980898;28;20245;-72
2021/10/02 06:15:09;;;;;;;22.80;14.47;;;13.30;99.90;;;;;;4979852;28;20291;-72
2021/10/02 06:17:37;;;;;;;22.50;15.67;;;13.40;99.90;;;;;;4980230;28;20718;-72
2021/10/02 06:20:07;;;;;;;20.70;15.53;;;13.40;99.90;;;;;;4984516;28;20303;-72
2021/10/02 06:22:35;;;;;;;22.13;15.67;;;13.40;99.90;;;;;;4980708;28;21002;-72
2021/10/02 06:25:04;;;;;;;23.80;16.40;;;13.40;99.90;;;;;;4982112;28;20226;-72
2021/10/02 06:27:33;;;;;;;23.43;15.80;;;13.40;99.90;;;;;;4978909;28;20294;-73
2021/10/02 06:30:02;;;;;;;21.53;15.23;;;13.40;99.90;;;;;;4979231;28;20249;-72
2021/10/02 06:32:34;;;;;;;23.97;15.80;;;13.40;99.90;;;;;;4978438;28;20764;-72
2021/10/02 06:35:03;;;;;;;21.43;16.23;;;13.40;99.90;;;;;;4983436;28;20243;-72
2021/10/02 06:37:31;;;;;;;21.60;14.77;;;13.40;99.90;;;;;;4982335;28;20247;-73
2021/10/02 06:39:59;;;;;;;24.60;16.13;;;13.40;99.90;;;;;;4979261;28;20586;-72
2021/10/02 06:42:28;;;;;;;24.50;17.47;;;13.40;99.90;;;;;;4976494;28;20728;-72
2021/10/02 06:44:57;;;;;;;23.70;16.40;;;13.50;99.90;;;;;;4985411;28;20233;-73
2021/10/02 06:47:26;;;;;;;26.23;16.30;;;13.50;99.90;;;;;;4977894;28;20295;-72
2021/10/02 06:49:57;;;;;;;24.60;16.10;;;13.50;99.90;;;;;;4981955;28;20244;-72
2021/10/02 06:52:25;;;;;;;25.57;17.73;;;13.50;99.90;;;;;;4978738;28;20652;-72
2021/10/02 06:54:55;;;;;;;23.00;16.80;;;13.50;99.90;;;;;;4984152;28;20272;-72
2021/10/02 06:57:23;;;;;;;24.70;15.93;;;13.50;99.90;;;;;;4981699;28;20819;-72
2021/10/02 06:59:52;;;;;;;25.60;16.63;;;13.60;99.90;;;;;;4989410;28;20234;-71
2021/10/02 07:02:21;;;;;;;27.03;17.47;;;13.70;99.90;;;;;;4981652;28;20277;-72
2021/10/02 07:04:50;;;;;;;21.50;16.40;;;13.70;99.90;;;;;;4987686;28;20302;-72
2021/10/02 07:07:19;;;;;;;22.83;15.93;;;13.70;99.90;;;;;;4984077;28;20232;-72
2021/10/02 07:09:47;;;;;;;23.33;17.07;;;13.80;99.90;;;;;;4983425;28;20543;-72
2021/10/02 07:12:16;;;;;;;23.50;17.23;;;13.80;99.90;;;;;;4979844;28;20242;-72
2021/10/02 07:14:44;;;;;;;23.13;17.10;;;13.80;99.90;;;;;;4983454;28;20656;-72
2021/10/02 07:17:13;;;;;;;20.43;16.27;;;13.80;99.90;;;;;;4982117;28;20291;-72
2021/10/02 07:19:42;;;;;;;22.20;17.63;;;13.80;99.90;;;;;;4978852;28;20232;-72
2021/10/02 07:22:11;;;;;;;23.80;17.23;;;13.80;99.90;;;;;;4986747;28;20238;-72
2021/10/02 07:24:39;;;;;;;22.83;17.33;;;13.80;99.90;;;;;;4982357;28;20241;-72
2021/10/02 07:27:07;;;;;;;24.27;17.37;;;13.80;99.90;;;;;;4985288;28;20965;-73
2021/10/02 07:29:35;;;;;;;26.27;17.50;;;13.90;99.90;;;;;;4988802;28;20238;-78
2021/10/02 07:32:04;;;;;;;27.00;14.60;;;14.00;99.90;;;;;;4984930;28;20239;-70
2021/10/02 07:34:32;;;;;;;23.83;17.27;;;14.20;99.90;;;;;;4985509;28;20237;-70
2021/10/02 07:37:02;;;;;;;24.33;17.73;;;14.30;99.90;;;;;;4987682;28;20313;-70
2021/10/02 07:39:30;;;;;;;18.63;16.47;;;14.40;99.90;;;;;;4989625;28;20741;-70
2021/10/02 07:41:58;;;;;;;19.70;17.03;;;14.20;99.90;;;;;;4981351;28;20241;-70
2021/10/02 07:44:30;;;;;;;21.03;16.70;;;14.20;99.90;;;;;;4990577;28;20243;-70
2021/10/02 07:47:00;;;;;;;21.07;17.07;;;14.20;99.90;;;;;;4985229;28;20661;-70
2021/10/02 07:49:34;;;;;;;19.00;16.53;;;14.20;99.90;;;;;;4986667;28;20234;-70
2021/10/02 07:52:05;;;;;;;20.87;16.20;;;14.20;99.90;;;;;;4981859;28;20258;-70
2021/10/02 07:54:34;;;;;;;18.67;16.57;;;14.30;99.90;;;;;;4975946;28;20242;-70
2021/10/02 07:57:04;;;;;;;18.87;16.40;;;14.40;99.90;;;;;;4977871;28;20336;-70
2021/10/02 07:59:34;;;;;;;18.80;16.30;;;14.40;99.90;;;;;;4979090;28;20316;-70
2021/10/02 08:02:07;;;;;;;17.80;16.03;;;14.40;99.90;;;;;;4958021;28;20590;-70
2021/10/02 08:04:41;;;;;;;18.73;16.83;;;14.50;99.90;;;;;;4955323;28;20238;-70
2021/10/02 08:07:13;;;;;;;17.60;15.70;;;14.50;99.90;;;;;;4961744;28;20410;-70
2021/10/02 08:09:41;;;;;;;17.27;15.30;;;14.50;99.90;;;;;;4958244;28;20647;-71
2021/10/02 08:12:11;;;;;;;16.83;15.13;;;14.50;99.90;;;;;;4960730;28;20269;-70
2021/10/02 08:14:40;;;;;;;17.77;14.90;;;14.60;99.90;;;;;;4954628;28;20937;-71
2021/10/02 08:17:09;;;;;;;17.03;15.23;;;14.70;99.90;;;;;;4959874;28;20246;-71
2021/10/02 08:19:40;;;;;;;17.30;15.50;;;14.70;99.90;;;;;;4958311;28;20254;-70
2021/10/02 08:22:10;;;;;;;17.87;15.80;;;14.70;99.90;;;;;;4958002;28;20244;-71
2021/10/02 08:24:41;;;;;;;16.27;14.57;;;14.70;99.90;;;;;;4951678;28;20245;-71
2021/10/02 08:27:11;;;;;;;16.90;15.30;;;14.60;99.90;;;;;;4956791;28;20333;-70
2021/10/02 08:29:41;;;;;;;16.97;14.47;;;14.60;99.90;;;;;;4958402;28;20772;-71
2021/10/02 08:32:10;;;;;;;15.87;14.23;;;14.60;99.90;;;;;;4956765;28;20243;-70
2021/10/02 08:34:38;;;;;;;16.87;15.27;;;14.70;99.90;;;;;;4954266;28;20902;-71
2021/10/02 08:37:06;;;;;;;15.90;14.27;;;14.70;99.90;;;;;;4956081;28;20246;-71
2021/10/02 08:39:34;;;;;;;15.83;14.23;;;14.70;99.90;;;;;;4957259;28;20777;-71
2021/10/02 08:42:05;;;;;;;16.07;13.77;;;14.80;99.90;;;;;;4956075;28;20334;-70
2021/10/02 08:44:34;;;;;;;15.57;13.97;;;15.00;99.90;;;;;;4951655;28;20301;-70
2021/10/02 08:47:03;;;;;;;15.57;13.33;;;15.10;99.90;;;;;;4956386;28;20258;-71
2021/10/02 08:49:43;;;;;;;14.23;12.73;;;15.20;99.90;;;;;;4955427;28;20270;-71
2021/10/02 08:52:12;;;;;;;14.37;12.90;;;15.30;99.90;;;;;;4956228;28;20250;-70
2021/10/02 08:54:43;;;;;;;13.50;12.20;;;15.40;99.90;;;;;;4952647;28;20246;-70
2021/10/02 08:57:18;;;;;;;13.33;12.03;;;15.40;99.90;;;;;;4955801;28;20246;-70
2021/10/02 08:59:46;;;;;;;14.17;12.03;;;15.30;99.90;;;;;;4956167;28;20324;-71
2021/10/02 09:02:15;;;;;;;13.93;12.57;;;15.30;99.90;;;;;;4968275;28;20242;-70
2021/10/02 09:04:45;;;;;;;13.27;12.00;;;15.40;99.90;;;;;;4965585;28;20905;-70
2021/10/02 09:07:15;;;;;;;12.60;11.30;;;15.40;99.90;;;;;;4974979;28;20262;-70
2021/10/02 09:09:44;;;;;;;13.97;11.90;;;15.40;99.90;;;;;;4974718;28;20241;-70
2021/10/02 09:12:17;;;;;;;13.03;11.73;;;15.40;99.90;;;;;;4974335;28;20242;-71
2021/10/02 09:14:45;;;;;;;11.93;10.73;;;15.30;99.90;;;;;;4969226;28;20242;-70
2021/10/02 09:17:13;;;;;;;11.87;10.67;;;15.40;99.90;;;;;;4983586;28;20321;-71
2021/10/02 09:19:45;;;;;;;12.40;11.20;;;15.40;99.90;;;;;;4982456;28;20259;-70
2021/10/02 09:22:17;;;;;;;13.50;12.03;;;15.40;99.90;;;;;;4989408;28;20243;-71
2021/10/02 09:24:46;;;;;;;13.93;12.53;;;15.30;99.90;;;;;;4988059;28;20321;-71
2021/10/02 09:27:22;;;;;;;15.20;11.57;;;15.20;99.90;;;;;;4991544;28;20230;-71
2021/10/02 09:29:54;;;;;;;13.30;11.93;;;15.20;99.90;;;;;;4989769;28;20255;-71
2021/10/02 09:32:29;;;;;;;13.87;11.80;;;15.30;99.90;;;;;;4981081;28;20700;-70
2021/10/02 09:35:00;;;;;;;13.10;11.80;;;15.60;99.90;;;;;;4981005;28;20585;-71
2021/10/02 09:37:31;;;;;;;11.57;10.47;;;15.90;99.90;;;;;;4979807;28;20651;-71
2021/10/02 09:40:02;;;;;;;11.83;10.10;;;16.00;99.90;;;;;;4989001;28;20233;-71
2021/10/02 09:42:35;;;;;;;11.57;10.00;;;16.10;99.90;;;;;;4983415;28;20292;-71
2021/10/02 09:45:07;;;;;;;11.30;10.20;;;16.30;99.90;;;;;;4987169;28;20576;-71
2021/10/02 09:47:37;;;;;;;10.70;9.60;;;16.40;99.90;;;;;;4986042;28;20795;-71
2021/10/02 09:50:11;;;;;;;13.03;9.57;;;16.50;99.90;;;;;;4981529;28;20341;-71
2021/10/02 09:52:41;;;;;;;10.90;9.50;;;16.50;99.90;;;;;;4983715;28;20230;-71
2021/10/02 09:55:24;;;;;;;10.20;8.73;;;16.40;99.90;;;;;;4981745;28;20657;-71
2021/10/02 09:57:56;;;;;;;10.23;8.73;;;16.50;99.90;;;;;;4993351;28;20241;-71
2021/10/02 10:00:27;;;;;;;9.37;8.43;;;16.60;99.90;;;;;;4984851;28;20285;-71
2021/10/02 10:02:57;;;;;;;10.30;8.13;;;16.50;99.90;;;;;;4979808;28;20643;-71
2021/10/02 10:05:29;;;;;;;11.13;8.17;;;16.60;99.90;;;;;;4984510;28;20249;-71
2021/10/02 10:07:59;;;;;;;9.20;7.10;;;16.60;99.90;;;;;;4981472;28;20278;-71
2021/10/02 10:10:41;;;;;;;10.25;7.85;;;16.90;99.90;;;;;;2036180;28;10023665;-71
2021/10/02 10:13:14;;;;;;;9.60;6.80;;;17.30;99.90;;;;;;4301297;28;10001589;-71
2021/10/02 10:15:44;;;;;;;7.93;6.23;;;17.60;99.90;;;;;;4984489;28;20261;-71
2021/10/02 10:18:13;;;;;;;8.40;6.20;;;18.00;99.90;;;;;;4982848;28;20784;-71
2021/10/02 10:20:49;;;;;;;12.90;6.17;;;18.10;99.90;;;;;;4981637;28;20312;-71
2021/10/02 10:23:27;;;;;;;8.03;5.90;;;18.00;99.90;;;;;;4976704;28;20242;-71
2021/10/02 10:25:58;;;;;;;8.87;5.93;;;17.80;99.90;;;;;;4980822;28;20238;-71
2021/10/02 10:28:30;;;;;;;8.17;6.10;;;17.60;99.90;;;;;;4976224;28;20660;-71
2021/10/02 10:31:11;;;;;;;7.67;6.23;;;17.40;99.90;;;;;;4980336;28;20235;-71
2021/10/02 10:33:40;;;;;;;9.00;6.33;;;17.20;99.90;;;;;;4978428;28;20337;-71
2021/10/02 10:36:09;;;;;;;7.27;5.60;;;17.10;99.90;;;;;;4983720;28;20242;-71
2021/10/02 10:38:39;;;;;;;9.90;5.70;;;17.10;99.90;;;;;;4979323;28;20263;-71
2021/10/02 10:41:13;;;;;;;7.97;5.10;;;17.00;99.90;;;;;;4982399;28;20235;-71
2021/10/02 10:43:43;;;;;;;7.20;5.47;;;16.90;99.90;;;;;;4977471;28;20239;-71
2021/10/02 10:46:14;;;;;;;6.93;5.40;;;16.90;99.90;;;;;;4984821;28;20608;-71
2021/10/02 10:48:43;;;;;;;8.07;4.77;;;17.00;99.90;;;;;;4977877;28;20705;-71
2021/10/02 10:51:14;;;;;;;7.30;5.40;;;17.10;99.90;;;;;;4979181;28;20239;-71
2021/10/02 10:53:44;;;;;;;7.37;5.53;;;17.10;99.90;;;;;;4977337;28;20235;-71
2021/10/02 10:56:15;;;;;;;7.40;5.77;;;17.20;99.90;;;;;;4981907;28;20320;-71
2021/10/02 10:58:45;;;;;;;5.90;5.17;;;17.20;99.90;;;;;;4981617;28;20315;-72
2021/10/02 11:01:33;;;;;;;8.43;5.30;;;17.20;99.90;;;;;;4978903;28;20674;-71
2021/10/02 11:04:02;;;;;;;7.60;5.37;;;17.50;99.90;;;;;;4980038;28;20246;-71
2021/10/02 11:06:51;;;;;;;6.57;5.00;;;17.70;99.90;;;;;;4976668;28;20230;-71
2021/10/02 11:09:35;;;;;;;6.10;4.80;;;17.80;99.90;;;;;;4976571;28;20285;-71
2021/10/02 11:12:05;;;;;;;6.27;4.00;;;17.90;99.90;;;;;;4980997;28;20232;-71
2021/10/02 11:15:03;;;;;;;7.60;4.50;;;18.10;99.90;;;;;;4979212;28;20340;-71
2021/10/02 11:17:46;;;;;;;8.23;5.67;;;18.20;99.90;;;;;;4978302;28;20343;-71
2021/10/02 11:20:32;;;;;;;8.00;4.77;;;18.30;99.90;;;;;;4983526;28;20715;-71
2021/10/02 11:23:37;;;;;;;7.60;4.93;;;18.50;99.90;;;;;;4979394;28;20277;-71
2021/10/02 11:26:14;;;;;;;6.83;4.90;;;18.60;99.90;;;;;;4982313;28;20324;-71
2021/10/02 11:28:44;;;;;;;6.70;4.90;;;18.60;99.90;;;;;;4984318;28;20298;-71
2021/10/02 11:31:16;;;;;;;8.33;4.77;;;18.60;99.90;;;;;;4981546;28;20653;-71
2021/10/02 11:33:47;;;;;;;6.47;5.27;;;18.60;99.90;;;;;;4979370;28;20289;-72
2021/10/02 11:36:43;;;;;;;6.83;4.63;;;18.60;99.90;;;;;;4983229;28;20271;-71
2021/10/02 11:39:15;;;;;;;9.40;5.07;;;18.50;99.90;;;;;;4981908;28;20311;-71
2021/10/02 11:41:47;;;;;;;8.33;5.23;;;18.60;99.90;;;;;;4980077;28;20259;-71
2021/10/02 11:44:22;;;;;;;8.70;5.97;;;18.40;99.90;;;;;;4984543;28;20240;-70
2021/10/02 11:47:32;;;;;;;7.07;5.83;;;18.20;99.90;;;;;;4985728;28;20669;-71
2021/10/02 11:50:31;;;;;;;11.37;5.93;;;18.10;99.90;;;;;;4988904;28;20723;-70
2021/10/02 11:53:18;;;;;;;9.03;7.43;;;18.00;99.90;;;;;;4983515;28;20331;-70
2021/10/02 11:55:49;;;;;;;10.43;7.40;;;18.10;99.90;;;;;;4989983;28;20671;-71
2021/10/02 11:58:19;;;;;;;8.50;7.70;;;18.10;99.90;;;;;;4987005;28;20239;-71
2021/10/02 12:00:50;;;;;;;10.73;8.90;;;18.00;99.90;;;;;;4984502;28;20269;-71
2021/10/02 12:03:24;;;;;;;9.60;8.57;;;18.10;99.90;;;;;;4986489;28;20733;-70
2021/10/02 12:05:54;;;;;;;10.33;9.33;;;18.20;99.90;;;;;;4987847;28;20378;-71
2021/10/02 12:08:23;;;;;;;9.80;8.83;;;18.20;99.90;;;;;;4985926;28;20882;-71
2021/10/02 12:11:00;;;;;;;10.63;8.80;;;18.20;99.90;;;;;;4985339;28;20240;-71
2021/10/02 12:13:30;;;;;;;12.13;10.77;;;18.20;99.90;;;;;;4980041;28;20647;-71
2021/10/02 12:16:00;;;;;;;10.63;9.63;;;18.30;99.90;;;;;;4987258;28;20565;-71
2021/10/02 12:18:50;;;;;;;10.70;9.60;;;18.30;99.90;;;;;;4986085;28;20286;-71
2021/10/02 12:21:43;;;;;;;10.37;9.47;;;18.30;99.90;;;;;;4983723;28;20286;-71
2021/10/02 12:24:18;;;;;;;9.70;8.80;;;18.20;99.90;;;;;;4983117;28;20298;-71
2021/10/02 12:26:51;;;;;;;10.37;9.23;;;18.30;99.90;;;;;;4980331;28;20669;-71
2021/10/02 12:29:21;;;;;;;10.00;9.00;;;18.40;99.90;;;;;;4983650;28;20669;-71
2021/10/02 12:31:53;;;;;;;10.47;9.47;;;18.30;99.90;;;;;;4983749;28;20289;-71
2021/10/02 12:34:24;;;;;;;10.73;9.17;;;18.10;99.90;;;;;;4983286;28;20744;-71
2021/10/02 12:36:56;;;;;;;10.07;9.07;;;18.10;99.90;;;;;;4981072;28;20287;-71
2021/10/02 12:39:37;;;;;;;10.80;9.13;;;18.10;99.90;;;;;;4983221;28;20314;-71
2021/10/02 12:42:07;;;;;;;10.73;9.40;;;18.10;99.90;;;;;;4982042;28;20769;-70
2021/10/02 12:44:38;;;;;;;9.40;8.50;;;18.20;99.90;;;;;;4984713;28;20318;-71
2021/10/02 12:47:09;;;;;;;8.93;8.13;;;18.30;99.90;;;;;;4982758;28;20240;-71
2021/10/02 12:49:43;;;;;;;9.47;7.83;;;18.30;99.90;;;;;;4986443;28;20240;-71
2021/10/02 12:52:13;;;;;;;8.37;7.57;;;18.30;99.90;;;;;;4986809;28;20255;-71
2021/10/02 12:54:48;;;;;;;8.53;7.40;;;18.30;99.90;;;;;;4982317;28;20331;-71
2021/10/02 12:57:17;;;;;;;8.17;7.37;;;18.30;99.90;;;;;;4977608;28;20335;-71
2021/10/02 12:59:57;;;;;;;8.07;7.23;;;18.40;99.90;;;;;;4984327;28;20271;-71
2021/10/02 13:02:26;;;;;;;8.53;7.30;;;18.30;99.90;;;;;;4979508;28;20754;-71
2021/10/02 13:04:57;;;;;;;8.87;7.17;;;18.30;99.90;;;;;;4979564;28;20516;-71
2021/10/02 13:07:31;;;;;;;9.57;7.20;;;18.40;99.90;;;;;;4984926;28;20802;-71
2021/10/02 13:10:12;;;;;;;9.60;7.43;;;18.60;99.90;;;;;;4979375;28;20263;-71
2021/10/02 13:12:44;;;;;;;7.23;6.10;;;18.60;99.90;;;;;;4979817;28;20748;-71
2021/10/02 13:15:26;;;;;;;6.87;6.17;;;18.50;99.90;;;;;;4983216;28;20253;-71
2021/10/02 13:18:05;;;;;;;7.67;6.80;;;18.30;99.90;;;;;;4978997;28;20666;-71
2021/10/02 13:20:36;;;;;;;8.57;6.43;;;18.10;99.90;;;;;;4984418;28;20232;-71
2021/10/02 13:23:08;;;;;;;7.63;6.30;;;18.10;99.90;;;;;;4983112;28;20302;-71
2021/10/02 13:25:42;;;;;;;6.90;6.20;;;18.20;99.90;;;;;;4979462;28;20268;-70
2021/10/02 13:28:24;;;;;;;7.00;6.30;;;18.10;99.90;;;;;;4981094;28;20267;-70
2021/10/02 13:30:53;;;;;;;6.60;5.93;;;18.10;99.90;;;;;;4982840;28;20236;-70
2021/10/02 13:33:22;;;;;;;8.60;6.23;;;18.20;99.90;;;;;;4982330;28;20242;-71
2021/10/02 13:35:53;;;;;;;5.67;4.97;;;18.30;99.90;;;;;;4987725;28;20242;-70
2021/10/02 13:38:36;;;;;;;6.23;5.33;;;18.20;99.90;;;;;;4995043;28;20290;-71
2021/10/02 13:41:08;;;;;;;7.00;4.90;;;18.30;99.90;;;;;;4987349;28;20263;-63
2021/10/02 13:43:50;;;;;;;6.00;4.73;;;18.40;99.90;;;;;;4993272;28;20310;-65
2021/10/02 13:46:25;;;;;;;4.87;4.30;;;18.30;99.90;;;;;;4979311;28;20766;-65
2021/10/02 13:48:57;;;;;;;5.97;3.93;;;18.20;99.90;;;;;;4989214;28;20245;-63
2021/10/02 13:51:27;;;;;;;7.97;4.53;;;18.10;99.90;;;;;;4980264;28;20238;-67